Time;durP1;ratioP1;P1;durP2;ratioP2;P2;SDS_P1;SDS_P2;PMS_P1;PMS_P2;Temp;Humidity;BMP_temperature;BMP_pressure;BME280_temperature;BME280_humidity;BME280_pressure;Samples;Min_cycle;Max_cycle;Signal;HPM_P1;HPM_P2
2022/12/05 00:02:30;;;;;;;35.77;15.50;;;;;;;;;;5080870;28;20449;-72
2022/12/05 00:05:19;;;;;;;36.03;16.40;;;;;;;;;;5077283;28;20471;-72
2022/12/05 00:07:48;;;;;;;39.43;17.97;;;;;;;;;;5076636;28;20467;-72
2022/12/05 00:10:26;;;;;;;30.23;14.27;;;;;;;;;;5082384;28;20465;-72
2022/12/05 00:13:03;;;;;;;36.37;15.73;;;;;;;;;;5089084;28;20474;-72
2022/12/05 00:15:40;;;;;;;35.87;16.30;;;;;;;;;;5093864;28;20474;-72
2022/12/05 00:18:08;;;;;;;36.00;16.07;;;;;;;;;;5096540;28;20514;-72
2022/12/05 00:20:37;;;;;;;28.47;15.23;;;;;;;;;;5096962;28;20474;-72
2022/12/05 00:23:06;;;;;;;34.03;16.77;;;;;;;;;;5095525;28;20448;-72
2022/12/05 00:25:38;;;;;;;33.40;15.40;;;;;;;;;;5096786;28;20512;-72
2022/12/05 00:28:07;;;;;;;32.00;14.00;;;;;;;;;;5095099;28;20526;-72
2022/12/05 00:30:46;;;;;;;25.57;13.70;;;;;;;;;;5076595;28;20530;-71
2022/12/05 00:33:20;;;;;;;31.70;15.03;;;;;;;;;;5076048;28;20444;-71
2022/12/05 00:35:53;;;;;;;29.53;15.50;;;;;;;;;;5077335;28;20475;-72
2022/12/05 00:38:25;;;;;;;35.87;17.70;;;;;;;;;;5077705;28;20491;-70
2022/12/05 00:41:00;;;;;;;31.10;14.97;;;;;;;;;;5086024;28;20459;-72
2022/12/05 00:43:34;;;;;;;27.40;14.73;;;;;;;;;;5100456;28;20465;-71
2022/12/05 00:46:10;;;;;;;24.63;14.27;;;;;;;;;;5100908;28;20568;-73
2022/12/05 00:48:43;;;;;;;32.97;15.93;;;;;;;;;;5100334;28;20462;-71
2022/12/05 00:51:15;;;;;;;28.90;13.53;;;;;;;;;;5100568;28;20448;-72
2022/12/05 00:53:51;;;;;;;32.13;15.87;;;;;;;;;;5100221;28;20455;-71
2022/12/05 00:56:25;;;;;;;26.37;14.80;;;;;;;;;;5101166;28;20455;-72
2022/12/05 00:59:00;;;;;;;32.40;16.77;;;;;;;;;;5094329;28;20534;-72
2022/12/05 01:04:26;;;;;;;31.73;16.03;;;;;;;;;;5099903;28;20451;-72
2022/12/05 01:07:04;;;;;;;28.67;14.70;;;;;;;;;;5095286;28;20762;-71
2022/12/05 01:09:46;;;;;;;31.70;15.63;;;;;;;;;;5099822;28;20517;-71
2022/12/05 01:12:26;;;;;;;24.70;14.40;;;;;;;;;;5100154;28;20455;-71
2022/12/05 01:15:05;;;;;;;29.30;16.60;;;;;;;;;;5099401;28;20925;-72
2022/12/05 01:17:42;;;;;;;32.87;16.60;;;;;;;;;;5091401;28;20456;-71
2022/12/05 01:20:17;;;;;;;34.40;15.77;;;;;;;;;;5079408;28;20928;-72
2022/12/05 01:22:55;;;;;;;38.60;16.53;;;;;;;;;;5080266;28;20458;-72
2022/12/05 01:25:23;;;;;;;29.77;14.37;;;;;;;;;;5079807;28;20478;-72
2022/12/05 01:27:51;;;;;;;27.10;14.50;;;;;;;;;;5079971;28;20464;-72
2022/12/05 01:30:19;;;;;;;28.47;13.80;;;;;;;;;;5079631;28;20460;-72
2022/12/05 01:32:47;;;;;;;27.93;12.73;;;;;;;;;;5097090;28;20795;-73
2022/12/05 01:35:15;;;;;;;32.93;16.93;;;;;;;;;;5099882;28;20774;-72
2022/12/05 01:37:46;;;;;;;33.07;17.23;;;;;;;;;;5099853;28;20470;-72
2022/12/05 01:40:21;;;;;;;29.53;15.10;;;;;;;;;;5099782;28;20495;-72
2022/12/05 01:42:59;;;;;;;28.90;14.30;;;;;;;;;;5099652;28;20532;-72
2022/12/05 01:45:34;;;;;;;31.63;14.80;;;;;;;;;;5099396;28;20459;-72
2022/12/05 01:48:16;;;;;;;25.50;13.83;;;;;;;;;;5099039;28;20468;-72
2022/12/05 01:50:53;;;;;;;26.00;12.47;;;;;;;;;;5099603;28;20538;-72
2022/12/05 01:53:21;;;;;;;32.53;15.10;;;;;;;;;;5099508;28;20529;-72
2022/12/05 01:55:59;;;;;;;30.57;16.03;;;;;;;;;;5099745;28;20509;-72
2022/12/05 01:58:29;;;;;;;25.67;14.77;;;;;;;;;;5099375;28;20463;-72
2022/12/05 02:00:57;;;;;;;32.77;15.67;;;;;;;;;;5099867;28;20454;-72
2022/12/05 02:03:26;;;;;;;25.70;14.97;;;;;;;;;;5099600;28;20881;-72
2022/12/05 02:06:02;;;;;;;24.80;14.47;;;;;;;;;;5098351;28;20460;-72
2022/12/05 02:08:31;;;;;;;26.10;14.50;;;;;;;;;;5099186;28;20528;-72
2022/12/05 02:11:03;;;;;;;31.87;14.70;;;;;;;;;;5099233;28;20452;-72
2022/12/05 02:13:39;;;;;;;29.13;14.50;;;;;;;;;;5099347;28;20464;-72
2022/12/05 02:16:16;;;;;;;32.43;16.30;;;;;;;;;;5099095;28;20474;-72
2022/12/05 02:19:01;;;;;;;27.93;13.63;;;;;;;;;;5081341;28;20465;-72
2022/12/05 02:21:42;;;;;;;27.90;14.87;;;;;;;;;;5078764;28;20518;-72
2022/12/05 02:24:44;;;;;;;25.83;14.37;;;;;;;;;;5091202;28;20935;-72
2022/12/05 02:27:35;;;;;;;23.37;13.77;;;;;;;;;;5049125;28;20529;-72
2022/12/05 02:30:06;;;;;;;31.23;14.50;;;;;;;;;;5101328;28;20454;-72
2022/12/05 02:32:39;;;;;;;24.00;14.60;;;;;;;;;;5098815;28;20726;-72
2022/12/05 02:35:10;;;;;;;26.10;14.60;;;;;;;;;;5097590;28;20739;-72
2022/12/05 02:37:44;;;;;;;28.37;14.70;;;;;;;;;;5083998;28;20458;-72
2022/12/05 02:40:15;;;;;;;28.97;14.23;;;;;;;;;;5079054;28;20483;-72
2022/12/05 02:42:45;;;;;;;35.23;15.20;;;;;;;;;;5090477;28;20459;-72
2022/12/05 02:45:16;;;;;;;28.97;15.70;;;;;;;;;;5098267;28;20447;-72
2022/12/05 02:47:49;;;;;;;35.17;17.00;;;;;;;;;;5098893;28;20463;-72
2022/12/05 02:50:21;;;;;;;33.23;15.80;;;;;;;;;;5091147;28;20557;-73
2022/12/05 02:52:49;;;;;;;31.00;15.87;;;;;;;;;;5083728;28;20469;-73
2022/12/05 02:55:18;;;;;;;32.37;15.20;;;;;;;;;;5080239;28;20495;-73
2022/12/05 02:57:47;;;;;;;30.73;15.63;;;;;;;;;;5078472;28;20868;-73
2022/12/05 03:00:17;;;;;;;31.00;15.13;;;;;;;;;;5088306;28;20495;-72
2022/12/05 03:02:45;;;;;;;31.17;15.27;;;;;;;;;;5098158;28;20460;-72
2022/12/05 03:05:20;;;;;;;33.47;15.87;;;;;;;;;;5097865;28;20485;-72
2022/12/05 03:07:49;;;;;;;36.37;18.47;;;;;;;;;;5082162;28;20531;-72
2022/12/05 03:10:19;;;;;;;28.73;15.67;;;;;;;;;;5077618;28;20464;-72
2022/12/05 03:12:50;;;;;;;29.00;14.80;;;;;;;;;;5078357;28;20460;-73
2022/12/05 03:15:24;;;;;;;27.00;15.40;;;;;;;;;;5077908;28;20480;-72
2022/12/05 03:17:54;;;;;;;28.73;13.33;;;;;;;;;;5079138;28;20486;-72
2022/12/05 03:20:23;;;;;;;23.43;12.33;;;;;;;;;;5080273;28;20487;-72
2022/12/05 03:22:59;;;;;;;25.63;13.23;;;;;;;;;;5079996;28;20460;-72
2022/12/05 03:25:31;;;;;;;26.97;15.43;;;;;;;;;;5081211;28;20475;-72
2022/12/05 03:28:05;;;;;;;29.50;14.00;;;;;;;;;;5080083;28;21017;-72
2022/12/05 03:30:36;;;;;;;27.07;14.80;;;;;;;;;;5080493;28;20480;-72
2022/12/05 03:33:06;;;;;;;33.57;14.70;;;;;;;;;;5079796;28;20460;-72
2022/12/05 03:35:38;;;;;;;31.40;13.67;;;;;;;;;;5078106;28;20498;-72
2022/12/05 03:38:08;;;;;;;24.77;13.40;;;;;;;;;;5077166;28;20551;-72
2022/12/05 03:40:41;;;;;;;26.13;14.20;;;;;;;;;;5093340;28;20637;-72
2022/12/05 03:43:12;;;;;;;25.53;14.80;;;;;;;;;;5091317;28;20735;-73
2022/12/05 03:45:55;;;;;;;28.90;16.00;;;;;;;;;;5077085;28;20448;-71
2022/12/05 03:48:25;;;;;;;34.17;15.33;;;;;;;;;;5087863;28;20713;-73
2022/12/05 03:50:53;;;;;;;26.90;13.47;;;;;;;;;;5095969;28;20459;-73
2022/12/05 03:53:25;;;;;;;30.73;14.37;;;;;;;;;;5093914;28;20526;-73
2022/12/05 03:55:56;;;;;;;33.27;14.37;;;;;;;;;;5079343;28;20470;-73
2022/12/05 03:58:26;;;;;;;28.93;13.57;;;;;;;;;;5096133;28;20455;-73
2022/12/05 04:01:06;;;;;;;29.33;15.93;;;;;;;;;;5081350;28;20480;-73
2022/12/05 04:03:40;;;;;;;30.00;14.67;;;;;;;;;;5089613;28;21071;-72
2022/12/05 04:06:23;;;;;;;26.60;16.80;;;;;;;;;;5087831;28;20467;-72
2022/12/05 04:08:56;;;;;;;32.80;17.23;;;;;;;;;;5076766;28;20928;-72
2022/12/05 04:11:24;;;;;;;32.77;17.00;;;;;;;;;;5095493;28;20464;-73
2022/12/05 04:13:58;;;;;;;27.47;14.80;;;;;;;;;;5100664;28;20864;-71
2022/12/05 04:19:20;;;;;;;32.63;13.60;;;;;;;;;;5100165;28;20498;-71
2022/12/05 04:21:58;;;;;;;26.63;14.90;;;;;;;;;;5096858;28;20467;-72
2022/12/05 04:27:22;;;;;;;27.57;15.00;;;;;;;;;;5079794;28;20428;-72
2022/12/05 04:29:55;;;;;;;35.53;15.67;;;;;;;;;;5079476;28;20460;-72
2022/12/05 04:32:35;;;;;;;27.60;14.93;;;;;;;;;;5079405;28;20942;-72
2022/12/05 04:35:08;;;;;;;30.80;13.73;;;;;;;;;;5080419;28;20464;-73
2022/12/05 04:37:42;;;;;;;33.00;17.17;;;;;;;;;;5080392;28;20452;-73
2022/12/05 04:40:16;;;;;;;28.13;16.07;;;;;;;;;;5079100;28;20908;-72
2022/12/05 04:42:47;;;;;;;31.80;16.50;;;;;;;;;;5080172;28;20864;-72
2022/12/05 04:45:20;;;;;;;33.33;17.50;;;;;;;;;;5079054;28;20464;-72
2022/12/05 04:48:00;;;;;;;39.67;17.40;;;;;;;;;;5079768;28;20809;-72
2022/12/05 04:50:35;;;;;;;32.80;16.93;;;;;;;;;;5079585;28;20470;-72
2022/12/05 04:53:11;;;;;;;29.37;16.17;;;;;;;;;;5080063;28;20547;-71
2022/12/05 04:55:51;;;;;;;32.50;17.20;;;;;;;;;;5079747;28;20526;-71
2022/12/05 04:58:31;;;;;;;32.97;16.80;;;;;;;;;;5083165;28;20455;-72
2022/12/05 05:01:03;;;;;;;36.50;18.17;;;;;;;;;;5099211;28;20479;-72
2022/12/05 05:03:36;;;;;;;32.67;14.67;;;;;;;;;;5100222;28;20455;-73
2022/12/05 05:06:04;;;;;;;27.80;16.10;;;;;;;;;;5099552;28;20468;-73
2022/12/05 05:08:32;;;;;;;34.07;16.20;;;;;;;;;;5099937;28;20806;-73
2022/12/05 05:11:05;;;;;;;31.43;15.07;;;;;;;;;;5100264;28;20467;-71
2022/12/05 05:13:34;;;;;;;40.60;19.30;;;;;;;;;;5099179;28;20782;-72
2022/12/05 05:16:05;;;;;;;36.80;16.47;;;;;;;;;;5100887;28;20473;-73
2022/12/05 05:18:36;;;;;;;34.10;17.40;;;;;;;;;;5099435;28;20458;-72
2022/12/05 05:21:07;;;;;;;42.00;20.57;;;;;;;;;;5099397;28;21155;-72
2022/12/05 05:23:36;;;;;;;36.50;18.80;;;;;;;;;;5099280;28;20545;-72
2022/12/05 05:26:04;;;;;;;33.37;17.50;;;;;;;;;;5099215;28;20902;-72
2022/12/05 05:28:32;;;;;;;41.00;18.20;;;;;;;;;;5099197;28;20474;-73
2022/12/05 05:31:03;;;;;;;37.87;18.90;;;;;;;;;;5098980;28;20459;-73
2022/12/05 05:33:35;;;;;;;40.13;17.17;;;;;;;;;;5099308;28;20471;-72
2022/12/05 05:36:09;;;;;;;34.80;17.10;;;;;;;;;;5098644;28;20456;-72
2022/12/05 05:38:37;;;;;;;36.30;17.60;;;;;;;;;;5099685;28;20459;-72
2022/12/05 05:41:05;;;;;;;38.67;19.83;;;;;;;;;;5099132;28;20875;-72
2022/12/05 05:43:33;;;;;;;40.23;16.63;;;;;;;;;;5098420;28;20521;-72
2022/12/05 05:46:07;;;;;;;53.37;19.43;;;;;;;;;;5097115;28;20443;-73
2022/12/05 05:48:38;;;;;;;47.27;19.27;;;;;;;;;;5098733;28;20456;-73
2022/12/05 05:51:07;;;;;;;41.87;19.13;;;;;;;;;;5099166;28;20459;-73
2022/12/05 05:53:35;;;;;;;41.60;20.00;;;;;;;;;;5098644;28;20448;-72
2022/12/05 05:56:06;;;;;;;37.93;17.73;;;;;;;;;;5097896;28;21010;-73
2022/12/05 05:58:34;;;;;;;55.13;19.70;;;;;;;;;;5099183;28;20481;-72
2022/12/05 06:01:05;;;;;;;42.50;20.37;;;;;;;;;;5097783;28;20475;-72
2022/12/05 06:03:32;;;;;;;53.40;22.13;;;;;;;;;;5098956;28;20860;-73
2022/12/05 06:06:06;;;;;;;43.50;18.67;;;;;;;;;;5097479;28;20456;-72
2022/12/05 06:08:34;;;;;;;44.63;19.20;;;;;;;;;;5097878;28;20447;-73
2022/12/05 06:11:06;;;;;;;45.23;22.00;;;;;;;;;;5097630;28;20857;-72
2022/12/05 06:13:34;;;;;;;44.00;19.63;;;;;;;;;;5096594;28;20519;-73
2022/12/05 06:16:02;;;;;;;50.03;20.63;;;;;;;;;;5097575;28;20455;-73
2022/12/05 06:18:32;;;;;;;43.50;24.40;;;;;;;;;;5098256;28;20550;-72
2022/12/05 06:21:00;;;;;;;48.30;20.60;;;;;;;;;;5096895;28;20777;-73
2022/12/05 06:23:35;;;;;;;44.33;21.83;;;;;;;;;;5096917;28;20526;-73
2022/12/05 06:26:03;;;;;;;44.13;22.37;;;;;;;;;;5097008;28;20487;-73
2022/12/05 06:28:31;;;;;;;57.60;23.67;;;;;;;;;;5096937;28;20456;-73
2022/12/05 06:30:58;;;;;;;48.47;20.47;;;;;;;;;;5095218;28;20466;-73
2022/12/05 06:33:26;;;;;;;60.23;23.40;;;;;;;;;;5094936;28;20895;-73
2022/12/05 06:36:02;;;;;;;48.77;21.13;;;;;;;;;;5093721;28;20541;-73
2022/12/05 06:38:30;;;;;;;64.00;23.50;;;;;;;;;;5095664;28;20485;-74
2022/12/05 06:40:59;;;;;;;53.47;21.10;;;;;;;;;;5095867;28;20965;-73
2022/12/05 06:43:27;;;;;;;54.37;21.03;;;;;;;;;;5095164;28;20526;-73
2022/12/05 06:45:58;;;;;;;60.40;21.40;;;;;;;;;;5095661;28;20469;-73
2022/12/05 06:48:28;;;;;;;50.27;19.30;;;;;;;;;;5077453;28;20546;-72
2022/12/05 06:50:56;;;;;;;47.10;21.40;;;;;;;;;;5075324;28;20488;-72
2022/12/05 06:53:24;;;;;;;64.00;25.70;;;;;;;;;;5075128;28;20453;-72
2022/12/05 06:55:57;;;;;;;55.00;20.00;;;;;;;;;;5074182;28;20526;-72
2022/12/05 06:58:26;;;;;;;49.83;20.20;;;;;;;;;;5086866;28;20543;-71
2022/12/05 07:03:42;;;;;;;59.53;18.83;;;;;;;;;;5075865;28;20444;-73
2022/12/05 07:06:10;;;;;;;45.90;18.73;;;;;;;;;;5077640;28;20559;-72
2022/12/05 07:08:43;;;;;;;53.30;23.60;;;;;;;;;;5077766;28;20467;-72
2022/12/05 07:11:14;;;;;;;54.37;19.10;;;;;;;;;;5075676;28;20499;-72
2022/12/05 07:13:47;;;;;;;47.40;19.93;;;;;;;;;;5076571;28;20894;-73
2022/12/05 07:16:18;;;;;;;50.67;21.17;;;;;;;;;;5075965;28;20986;-73
2022/12/05 07:18:49;;;;;;;52.63;19.50;;;;;;;;;;5074272;28;20555;-72
2022/12/05 07:21:20;;;;;;;53.37;19.10;;;;;;;;;;5076271;28;20768;-73
2022/12/05 07:24:00;;;;;;;45.13;17.90;;;;;;;;;;5075507;28;20543;-73
2022/12/05 07:26:28;;;;;;;41.10;15.17;;;;;;;;;;5085557;28;20772;-72
2022/12/05 07:28:57;;;;;;;35.33;15.97;;;;;;;;;;5094238;28;20492;-72
2022/12/05 07:31:28;;;;;;;29.83;13.40;;;;;;;;;;5096271;28;20879;-72
2022/12/05 07:33:56;;;;;;;45.87;17.40;;;;;;;;;;5096421;28;20454;-72
2022/12/05 07:36:26;;;;;;;44.20;15.23;;;;;;;;;;5095120;28;20451;-72
2022/12/05 07:38:58;;;;;;;41.07;16.80;;;;;;;;;;5092020;28;20487;-72
2022/12/05 07:41:27;;;;;;;38.80;16.17;;;;;;;;;;5093455;28;20498;-73
2022/12/05 07:44:02;;;;;;;35.53;14.27;;;;;;;;;;5096591;28;20671;-72
2022/12/05 07:46:30;;;;;;;30.43;14.57;;;;;;;;;;5093698;28;20491;-72
2022/12/05 07:49:05;;;;;;;36.60;14.53;;;;;;;;;;5093523;28;20452;-72
2022/12/05 07:51:34;;;;;;;32.97;16.33;;;;;;;;;;5095521;28;20470;-72
2022/12/05 07:54:05;;;;;;;29.03;13.20;;;;;;;;;;5095300;28;20483;-72
2022/12/05 07:56:33;;;;;;;36.33;13.93;;;;;;;;;;5079552;28;20459;-72
2022/12/05 07:59:05;;;;;;;37.83;13.93;;;;;;;;;;5074638;28;20542;-74
2022/12/05 08:01:33;;;;;;;28.73;13.67;;;;;;;;;;5089528;28;20488;-73
2022/12/05 08:04:06;;;;;;;42.97;13.50;;;;;;;;;;5089799;28;20464;-72
2022/12/05 08:06:35;;;;;;;36.83;13.60;;;;;;;;;;5092170;28;20847;-73
2022/12/05 08:09:02;;;;;;;32.23;12.93;;;;;;;;;;5086286;28;20460;-72
2022/12/05 08:11:37;;;;;;;25.83;11.80;;;;;;;;;;5091958;28;20485;-74
2022/12/05 08:14:30;;;;;;;31.10;15.00;;;;;;;;;;5091311;28;20470;-73
2022/12/05 08:16:58;;;;;;;27.90;14.20;;;;;;;;;;5077428;28;20856;-72
2022/12/05 08:19:32;;;;;;;30.27;13.97;;;;;;;;;;5075776;28;20452;-72
2022/12/05 08:22:00;;;;;;;23.73;13.00;;;;;;;;;;5075290;28;21136;-73
2022/12/05 08:24:34;;;;;;;29.80;15.03;;;;;;;;;;5084596;28;20739;-73
2022/12/05 08:27:02;;;;;;;42.30;16.47;;;;;;;;;;5093064;28;20466;-73
2022/12/05 08:29:31;;;;;;;27.87;13.90;;;;;;;;;;5094935;28;20888;-73
2022/12/05 08:31:59;;;;;;;33.70;13.80;;;;;;;;;;5083987;28;20468;-73
2022/12/05 08:34:28;;;;;;;39.63;13.63;;;;;;;;;;5075540;28;20519;-73
2022/12/05 08:36:55;;;;;;;46.20;20.43;;;;;;;;;;5082818;28;20464;-73
2022/12/05 08:39:23;;;;;;;38.93;16.27;;;;;;;;;;5094447;28;20471;-74
2022/12/05 08:41:54;;;;;;;39.00;13.70;;;;;;;;;;5083924;28;20487;-74
2022/12/05 08:44:23;;;;;;;38.03;14.73;;;;;;;;;;5074010;28;20567;-74
2022/12/05 08:47:08;;;;;;;27.70;13.90;;;;;;;;;;5074843;28;20865;-73
2022/12/05 08:49:59;;;;;;;30.13;14.37;;;;;;;;;;5076514;28;20526;-73
2022/12/05 08:52:30;;;;;;;37.40;15.50;;;;;;;;;;5090013;28;20448;-74
2022/12/05 08:55:08;;;;;;;37.27;15.03;;;;;;;;;;5083920;28;20889;-74
2022/12/05 08:57:35;;;;;;;37.93;13.93;;;;;;;;;;5077926;28;20757;-74
2022/12/05 09:00:05;;;;;;;28.03;14.87;;;;;;;;;;5080779;28;20475;-73
2022/12/05 09:02:39;;;;;;;30.80;14.00;;;;;;;;;;5077940;28;20904;-73
2022/12/05 09:05:17;;;;;;;30.57;13.67;;;;;;;;;;5079127;28;20965;-73
2022/12/05 09:07:47;;;;;;;31.57;13.00;;;;;;;;;;5095130;28;20524;-73
2022/12/05 09:11:00;;;;;;;30.77;13.87;;;;;;;;;;5079666;28;20452;-72
2022/12/05 09:13:31;;;;;;;29.20;14.20;;;;;;;;;;5080019;28;20468;-74
2022/12/05 09:16:05;;;;;;;35.37;14.70;;;;;;;;;;5080190;28;20476;-73
2022/12/05 09:18:37;;;;;;;22.80;12.27;;;;;;;;;;5089549;28;20459;-73
2022/12/05 09:21:09;;;;;;;29.17;13.23;;;;;;;;;;5079395;28;20480;-74
2022/12/05 09:23:45;;;;;;;28.00;12.73;;;;;;;;;;5077781;28;20533;-73
2022/12/05 09:26:17;;;;;;;50.60;20.30;;;;;;;;;;5077693;28;20526;-74
2022/12/05 09:29:00;;;;;;;36.53;15.77;;;;;;;;;;5078924;28;20746;-73
2022/12/05 09:31:35;;;;;;;28.37;13.57;;;;;;;;;;5081021;28;20618;-74
2022/12/05 09:34:09;;;;;;;38.97;14.80;;;;;;;;;;5081565;28;20874;-74
2022/12/05 09:36:57;;;;;;;29.33;13.33;;;;;;;;;;5082423;28;20461;-74
2022/12/05 09:39:33;;;;;;;25.63;12.30;;;;;;;;;;5077902;28;20821;-73
2022/12/05 09:42:09;;;;;;;31.00;12.97;;;;;;;;;;5090449;28;20482;-74
2022/12/05 09:44:43;;;;;;;29.37;13.20;;;;;;;;;;5090835;28;20538;-74
2022/12/05 09:47:15;;;;;;;39.27;13.47;;;;;;;;;;5077857;28;20770;-73
2022/12/05 09:49:50;;;;;;;32.83;13.83;;;;;;;;;;5078570;28;20468;-73
2022/12/05 09:52:24;;;;;;;32.57;13.90;;;;;;;;;;5079246;28;20460;-73
2022/12/05 09:55:01;;;;;;;27.03;11.67;;;;;;;;;;5090015;28;20451;-73
2022/12/05 09:57:40;;;;;;;24.53;10.83;;;;;;;;;;5078668;28;20922;-73
2022/12/05 10:03:21;;;;;;;24.67;11.43;;;;;;;;;;5078080;28;20477;-73
2022/12/05 10:06:10;;;;;;;24.83;11.10;;;;;;;;;;5078614;28;20464;-73
2022/12/05 10:12:02;;;;;;;29.87;12.97;;;;;;;;;;5000392;28;20512;-73
2022/12/05 10:14:56;;;;;;;28.63;12.10;;;;;;;;;;5080339;28;20583;-73
2022/12/05 10:17:33;;;;;;;19.97;10.10;;;;;;;;;;5078461;28;20471;-73
2022/12/05 10:20:07;;;;;;;22.80;10.17;;;;;;;;;;5097080;28;20467;-72
2022/12/05 10:22:44;;;;;;;19.20;9.83;;;;;;;;;;5082329;28;20487;-71
2022/12/05 10:25:20;;;;;;;24.07;10.30;;;;;;;;;;5096220;28;20473;-72
2022/12/05 10:28:23;;;;;;;25.80;11.97;;;;;;;;;;5074182;28;20440;-73
2022/12/05 10:31:02;;;;;;;23.17;11.00;;;;;;;;;;5093199;28;20959;-73
2022/12/05 10:33:34;;;;;;;23.70;10.73;;;;;;;;;;5087249;28;20479;-72
2022/12/05 10:36:27;;;;;;;21.53;11.17;;;;;;;;;;5092016;28;20855;-71
2022/12/05 10:39:04;;;;;;;24.60;10.77;;;;;;;;;;5086901;28;20467;-72
2022/12/05 10:41:48;;;;;;;24.87;10.60;;;;;;;;;;5080277;28;20487;-72
2022/12/05 10:44:22;;;;;;;24.53;13.03;;;;;;;;;;5081838;28;20464;-73
2022/12/05 10:46:54;;;;;;;20.33;9.77;;;;;;;;;;5084591;28;20475;-72
2022/12/05 10:49:24;;;;;;;20.43;10.33;;;;;;;;;;5083476;28;20495;-73
2022/12/05 10:51:52;;;;;;;24.57;13.40;;;;;;;;;;5087416;28;20471;-71
2022/12/05 10:54:30;;;;;;;28.33;12.17;;;;;;;;;;5085071;28;20554;-73
2022/12/05 10:57:01;;;;;;;23.90;11.83;;;;;;;;;;5091492;28;20542;-72
2022/12/05 10:59:47;;;;;;;27.37;12.17;;;;;;;;;;5086468;28;20546;-71
2022/12/05 11:02:26;;;;;;;32.80;12.07;;;;;;;;;;5087688;28;20483;-73
2022/12/05 11:04:55;;;;;;;27.47;12.67;;;;;;;;;;5081900;28;20482;-72
2022/12/05 11:07:46;;;;;;;26.70;12.40;;;;;;;;;;5079238;28;20460;-72
2022/12/05 11:10:27;;;;;;;27.57;10.83;;;;;;;;;;5075537;28;20947;-73
2022/12/05 11:13:01;;;;;;;18.77;10.80;;;;;;;;;;5083089;28;20896;-73
2022/12/05 11:15:35;;;;;;;20.33;9.33;;;;;;;;;;5082806;28;20565;-74
2022/12/05 11:18:24;;;;;;;20.50;10.03;;;;;;;;;;5079289;28;20543;-71
2022/12/05 11:21:14;;;;;;;20.43;10.47;;;;;;;;;;5091634;28;20528;-73
2022/12/05 11:27:19;;;;;;;23.10;11.87;;;;;;;;;;5073802;28;20456;-72
2022/12/05 11:30:15;;;;;;;;;;;;;;;;;;;;;
2022/12/05 11:32:54;;;;;;;30.23;16.30;;;;;;;;;;5088732;28;20462;-74
2022/12/05 11:35:32;;;;;;;25.13;11.07;;;;;;;;;;5078078;28;20789;-74
2022/12/05 11:38:06;;;;;;;25.23;10.70;;;;;;;;;;5084434;28;20460;-73
2022/12/05 11:40:44;;;;;;;26.80;9.93;;;;;;;;;;5098178;28;20559;-71
2022/12/05 11:43:42;;;;;;;32.03;10.90;;;;;;;;;;5090040;28;20483;-72
2022/12/05 11:46:28;;;;;;;21.47;11.70;;;;;;;;;;5093763;28;20695;-72
2022/12/05 11:49:43;;;;;;;18.77;10.63;;;;;;;;;;5090360;28;20451;-73
2022/12/05 11:52:30;;;;;;;21.87;10.77;;;;;;;;;;5087928;28;20447;-72
2022/12/05 11:58:12;;;;;;;61.73;31.20;;;;;;;;;;5088842;28;20484;-73
2022/12/05 12:00:53;;;;;;;22.30;11.30;;;;;;;;;;5081665;28;20461;-73
2022/12/05 12:03:51;;;;;;;23.80;9.87;;;;;;;;;;5083351;28;20476;-73
2022/12/05 12:09:34;;;;;;;26.40;9.30;;;;;;;;;;5095341;28;20444;-73
2022/12/05 12:12:20;;;;;;;15.93;9.60;;;;;;;;;;5097190;28;20459;-73
2022/12/05 12:14:53;;;;;;;32.37;13.13;;;;;;;;;;5097303;28;20447;-74
2022/12/05 12:17:34;;;;;;;18.70;9.57;;;;;;;;;;5087796;28;20452;-73
2022/12/05 12:20:33;;;;;;;21.00;9.47;;;;;;;;;;5092346;28;20475;-73
2022/12/05 12:23:25;;;;;;;25.17;12.00;;;;;;;;;;5093800;28;20483;-72
2022/12/05 12:26:19;;;;;;;17.70;9.20;;;;;;;;;;5067451;28;21080;-73
2022/12/05 12:29:07;;;;;;;31.50;12.10;;;;;;;;;;5088910;28;20578;-72
2022/12/05 12:34:48;;;;;;;21.07;10.77;;;;;;;;;;5087971;28;20491;-73
2022/12/05 12:37:20;;;;;;;24.57;10.50;;;;;;;;;;5083918;28;20922;-73
2022/12/05 12:39:52;;;;;;;15.70;9.97;;;;;;;;;;5090471;28;20458;-73
2022/12/05 12:42:29;;;;;;;20.33;9.30;;;;;;;;;;5098050;28;20487;-74
2022/12/05 12:45:33;;;;;;;16.43;10.20;;;;;;;;;;5100540;28;20525;-74
2022/12/05 12:48:22;;;;;;;20.33;10.17;;;;;;;;;;5088690;28;20506;-73
2022/12/05 12:50:56;;;;;;;19.87;8.60;;;;;;;;;;5078845;28;20456;-74
2022/12/05 12:56:37;;;;;;;12.33;7.80;;;;;;;;;;5080985;28;20468;-73
2022/12/05 12:59:15;;;;;;;13.37;8.13;;;;;;;;;;5099523;28;20507;-73
2022/12/05 13:01:47;;;;;;;17.40;9.70;;;;;;;;;;5095486;28;20443;-73
2022/12/05 13:04:17;;;;;;;20.00;9.40;;;;;;;;;;5099756;28;20753;-73
2022/12/05 13:06:51;;;;;;;26.87;11.20;;;;;;;;;;5094161;28;20456;-71
2022/12/05 13:12:28;;;;;;;30.10;11.73;;;;;;;;;;5084924;28;20501;-72
2022/12/05 13:15:06;;;;;;;21.10;8.60;;;;;;;;;;5081479;28;20546;-72
2022/12/05 13:17:40;;;;;;;13.03;7.37;;;;;;;;;;5091525;28;20751;-72
2022/12/05 13:20:18;;;;;;;18.70;9.10;;;;;;;;;;5098758;28;20459;-73
2022/12/05 13:22:46;;;;;;;21.13;8.30;;;;;;;;;;5087516;28;20483;-73
2022/12/05 13:25:16;;;;;;;17.17;9.50;;;;;;;;;;5082954;28;20448;-72
2022/12/05 13:44:19;;;;;;;15.40;9.10;;;;;;;;;;5112921;28;20485;-73
2022/12/05 13:47:23;;;;;;;18.77;7.93;;;;;;;;;;5103310;28;20844;-73
2022/12/05 13:50:03;;;;;;;10.90;6.97;;;;;;;;;;5095041;28;20455;-73
2022/12/05 13:56:11;;;;;;;18.13;7.50;;;;;;;;;;5102917;28;20477;-74
2022/12/05 14:04:57;;;;;;;11.70;7.27;;;;;;;;;;5096692;28;20761;-75
2022/12/05 14:07:42;;;;;;;14.73;7.30;;;;;;;;;;5111781;28;20435;-72
2022/12/05 14:13:40;;;;;;;22.03;10.40;;;;;;;;;;5109432;28;20445;-73
2022/12/05 14:26:36;;;;;;;;;;;;;;;;;;;;;
2022/12/05 14:29:34;;;;;;;16.10;7.77;;;;;;;;;;5087895;28;20440;-72
2022/12/05 14:32:25;;;;;;;20.47;10.33;;;;;;;;;;5087978;28;20604;-72
2022/12/05 14:35:12;;;;;;;7.80;5.20;;;;;;;;;;5076991;28;20718;-72
2022/12/05 14:40:51;;;;;;;13.13;7.40;;;;;;;;;;5087521;28;20443;-73
2022/12/05 14:46:50;;;;;;;16.60;9.03;;;;;;;;;;5082613;28;20424;-73
2022/12/05 14:49:56;;;;;;;20.07;8.77;;;;;;;;;;5068066;28;20486;-73
2022/12/05 14:52:40;;;;;;;17.30;9.20;;;;;;;;;;5071789;28;20517;-74
2022/12/05 14:55:15;;;;;;;18.17;9.30;;;;;;;;;;5067206;28;20519;-73
2022/12/05 14:57:47;;;;;;;18.07;9.67;;;;;;;;;;5077056;28;20545;-76
2022/12/05 15:00:24;;;;;;;12.63;7.13;;;;;;;;;;5077389;28;20875;-72
2022/12/05 15:08:37;;;;;;;11.40;7.33;;;;;;;;;;5066817;28;20481;-72
2022/12/05 15:11:06;;;;;;;17.27;6.77;;;;;;;;;;5076203;28;20496;-72
2022/12/05 15:13:34;;;;;;;13.43;7.23;;;;;;;;;;5075458;28;20452;-73
2022/12/05 15:18:58;;;;;;;11.03;6.60;;;;;;;;;;5064639;28;20455;-73
2022/12/05 15:21:31;;;;;;;13.70;7.30;;;;;;;;;;5077193;28;20514;-72
2022/12/05 15:24:24;;;;;;;15.20;6.67;;;;;;;;;;5075552;28;20519;-72
2022/12/05 15:27:03;;;;;;;12.83;6.77;;;;;;;;;;5076295;28;20469;-73
2022/12/05 15:29:46;;;;;;;12.87;7.30;;;;;;;;;;5077220;28;20453;-73
2022/12/05 15:35:27;;;;;;;13.90;8.67;;;;;;;;;;5061262;28;21031;-74
2022/12/05 15:38:12;;;;;;;12.23;7.20;;;;;;;;;;5073910;28;20476;-72
2022/12/05 15:41:03;;;;;;;14.53;7.07;;;;;;;;;;5076743;28;20524;-73
2022/12/05 15:46:49;;;;;;;19.40;8.53;;;;;;;;;;5065424;28;21000;-73
2022/12/05 15:49:34;;;;;;;13.33;8.37;;;;;;;;;;5077071;28;20506;-72
2022/12/05 15:52:20;;;;;;;13.23;7.70;;;;;;;;;;5074725;28;20461;-73
2022/12/05 15:55:10;;;;;;;12.97;7.57;;;;;;;;;;5061747;28;20484;-72
2022/12/05 15:57:55;;;;;;;19.40;7.70;;;;;;;;;;5075124;28;20543;-73
2022/12/05 16:00:32;;;;;;;12.80;7.20;;;;;;;;;;5075865;28;21070;-73
2022/12/05 16:03:34;;;;;;;12.00;7.30;;;;;;;;;;5065768;28;20449;-74
2022/12/05 16:06:28;;;;;;;15.00;7.53;;;;;;;;;;5069374;28;20747;-73
2022/12/05 16:09:08;;;;;;;14.50;6.37;;;;;;;;;;5068947;28;20445;-72
2022/12/05 16:11:36;;;;;;;11.53;7.67;;;;;;;;;;5060369;28;20547;-72
2022/12/05 16:14:09;;;;;;;12.80;6.83;;;;;;;;;;5074109;28;20455;-73
2022/12/05 16:16:45;;;;;;;13.40;5.53;;;;;;;;;;5066945;28;20484;-72
2022/12/05 16:19:18;;;;;;;11.97;6.23;;;;;;;;;;5070789;28;20468;-73
2022/12/05 16:21:49;;;;;;;13.23;7.70;;;;;;;;;;5069571;28;20449;-73
2022/12/05 16:24:19;;;;;;;11.97;7.27;;;;;;;;;;5076000;28;20475;-71
2022/12/05 16:26:57;;;;;;;30.80;14.07;;;;;;;;;;5075624;28;20449;-73
2022/12/05 16:29:42;;;;;;;9.50;7.00;;;;;;;;;;5069600;28;20452;-73
2022/12/05 16:32:18;;;;;;;10.13;6.23;;;;;;;;;;5074727;28;20448;-73
2022/12/05 16:34:54;;;;;;;8.60;5.73;;;;;;;;;;5075558;28;20456;-74
2022/12/05 16:37:24;;;;;;;14.27;7.17;;;;;;;;;;5073688;28;20507;-73
2022/12/05 16:39:51;;;;;;;16.20;7.30;;;;;;;;;;5076525;28;20456;-73
2022/12/05 16:42:24;;;;;;;10.17;5.90;;;;;;;;;;5057781;28;20583;-73
2022/12/05 16:45:04;;;;;;;11.53;8.10;;;;;;;;;;5057044;28;20446;-73
2022/12/05 16:47:55;;;;;;;11.73;6.87;;;;;;;;;;5070653;28;20457;-73